createdAt,value
2018-11-03T09:40:58.927Z,11.53
2018-11-03T09:43:27.280Z,10.03
2018-11-03T09:45:55.491Z,10.93
2018-11-03T09:48:23.785Z,11.00
2018-11-03T09:50:52.126Z,11.37
2018-11-03T09:53:20.654Z,10.73
2018-11-03T09:55:49.583Z,9.93
2018-11-03T09:58:17.801Z,10.20
2018-11-03T10:00:46.045Z,11.20
2018-11-03T10:03:14.280Z,11.33
2018-11-03T10:05:42.584Z,10.37
2018-11-03T10:08:10.948Z,11.57
2018-11-03T10:10:39.362Z,10.83
2018-11-03T10:13:07.684Z,12.63
2018-11-03T10:15:36.056Z,12.33
2018-11-03T10:18:04.550Z,11.20
2018-11-03T10:20:32.874Z,11.53
2018-11-03T10:23:01.175Z,12.50
2018-11-03T10:25:29.417Z,10.70
2018-11-03T10:27:57.687Z,11.13
2018-11-03T10:30:25.999Z,9.90
2018-11-03T10:32:54.271Z,10.57
2018-11-03T10:35:22.525Z,10.20
2018-11-03T10:37:50.795Z,10.97
2018-11-03T10:40:19.207Z,9.63
2018-11-03T10:42:47.504Z,10.53
2018-11-03T10:45:16.745Z,10.63
2018-11-03T10:47:45.315Z,10.20
2018-11-03T10:50:15.681Z,10.53
2018-11-03T10:52:44.938Z,10.13
2018-11-03T10:55:14.676Z,10.13
2018-11-03T10:57:43.360Z,10.10
2018-11-03T11:00:17.217Z,10.10
2018-11-03T11:02:51.007Z,10.27
2018-11-03T11:05:24.809Z,10.00
2018-11-03T11:07:58.476Z,10.03
2018-11-03T11:10:32.379Z,9.67
2018-11-03T11:13:03.480Z,9.60
2018-11-03T11:15:31.740Z,9.20
2018-11-03T11:18:00.065Z,8.83
2018-11-03T11:20:28.382Z,11.23
2018-11-03T11:22:56.790Z,9.77
2018-11-03T12:59:22.571Z,6.10
2018-11-03T13:01:50.709Z,6.20
2018-11-03T13:04:18.868Z,6.20
2018-11-03T13:06:47.107Z,5.63
2018-11-03T13:09:15.368Z,5.20
2018-11-03T13:11:43.593Z,5.90
2018-11-03T13:14:11.832Z,5.90
2018-11-03T13:16:40.178Z,6.50
2018-11-03T13:19:08.429Z,5.93
2018-11-03T13:21:36.659Z,6.40
2018-11-03T13:24:04.983Z,6.73
2018-11-03T13:26:33.218Z,7.30
2018-11-03T13:29:01.453Z,9.13
2018-11-03T13:31:29.709Z,6.87
2018-11-03T13:33:57.995Z,6.97
2018-11-03T13:36:26.231Z,6.90
2018-11-03T13:38:54.444Z,7.90
2018-11-03T13:41:22.676Z,7.70
2018-11-03T13:43:50.901Z,7.23
2018-11-03T13:46:19.276Z,6.93
2018-11-03T13:48:47.489Z,5.67
2018-11-03T13:54:18.474Z,8.10
2018-11-03T13:56:47.016Z,11.90
2018-11-03T13:59:15.401Z,6.63
2018-11-03T14:01:43.971Z,8.00
2018-11-03T14:04:12.521Z,5.93
2018-11-03T14:21:17.436Z,6.93
2018-11-03T14:23:45.732Z,6.87
2018-11-03T14:26:14.026Z,6.67
2018-11-03T14:28:42.404Z,7.03
2018-11-03T14:31:10.644Z,6.83
2018-11-03T14:33:38.907Z,6.60
2018-11-03T14:36:07.204Z,7.60
2018-11-03T14:38:35.471Z,7.57
2018-11-03T14:41:03.761Z,8.07
2018-11-03T14:43:32.032Z,8.00
2018-11-03T14:46:00.336Z,7.00
2018-11-03T14:51:11.518Z,7.97
2018-11-03T14:53:39.771Z,8.50
2018-11-03T14:56:08.101Z,8.33
2018-11-03T14:58:36.424Z,8.43
2018-11-03T15:01:04.930Z,8.43
2018-11-03T15:03:33.226Z,8.40
2018-11-03T15:06:01.460Z,7.77
2018-11-03T15:08:29.828Z,8.90
2018-11-03T15:10:58.038Z,8.53
2018-11-03T15:13:26.441Z,7.90
2018-11-03T15:15:54.676Z,8.20
2018-11-03T15:18:23.024Z,9.87
2018-11-03T15:20:51.292Z,9.90
2018-11-03T15:23:19.608Z,8.30
2018-11-03T15:25:47.860Z,8.00
2018-11-03T15:28:16.133Z,9.00
2018-11-03T15:30:44.480Z,9.40
2018-11-03T15:33:12.807Z,9.63
2018-11-03T15:35:41.167Z,8.67
2018-11-03T15:38:09.544Z,9.03
2018-11-03T15:40:37.844Z,8.77
2018-11-03T15:43:06.112Z,8.97
2018-11-03T15:45:34.376Z,9.87
2018-11-03T15:48:02.664Z,9.67
2018-11-03T15:50:30.927Z,8.80
2018-11-03T15:52:59.360Z,10.50
2018-11-03T15:55:27.665Z,10.00
2018-11-03T15:57:55.946Z,10.10
2018-11-03T16:00:24.289Z,9.07
2018-11-03T16:02:52.541Z,9.70
2018-11-03T16:05:20.873Z,10.27
2018-11-03T16:07:49.108Z,9.90
2018-11-03T16:10:17.364Z,10.43
2018-11-03T16:12:45.823Z,10.23
2018-11-03T16:15:14.155Z,9.17
2018-11-03T16:17:42.792Z,9.57
2018-11-03T16:20:12.144Z,10.57
2018-11-03T16:22:40.662Z,9.20
2018-11-03T16:25:09.391Z,10.80
2018-11-03T16:27:38.244Z,9.50
2018-11-03T16:30:08.712Z,10.30
2018-11-03T16:32:37.118Z,9.73
2018-11-03T16:35:05.548Z,9.93
2018-11-03T16:37:33.848Z,8.83
2018-11-03T16:40:02.113Z,11.10
2018-11-03T16:42:30.372Z,9.77
2018-11-03T16:44:58.756Z,9.53
2018-11-03T16:47:27.011Z,9.13
2018-11-03T16:49:55.325Z,8.47
2018-11-03T16:52:23.612Z,9.50
2018-11-03T16:54:52.108Z,8.37
2018-11-03T16:57:20.366Z,8.07
2018-11-03T16:59:48.668Z,8.50
2018-11-03T17:02:16.967Z,8.40
2018-11-03T17:04:45.324Z,8.57
2018-11-03T17:07:13.638Z,8.73
2018-11-03T17:09:42.039Z,8.90
2018-11-03T17:12:10.299Z,8.67
2018-11-03T17:14:38.581Z,8.20
2018-11-03T17:17:13.420Z,8.37
2018-11-03T17:19:41.692Z,8.63
2018-11-03T17:22:10.004Z,8.10
2018-11-03T17:24:38.261Z,8.50
2018-11-03T17:27:06.699Z,9.23
2018-11-03T17:29:35.029Z,8.47
2018-11-03T17:32:03.287Z,8.27
2018-11-03T17:34:31.576Z,8.40
2018-11-03T17:36:59.839Z,9.27
2018-11-03T17:39:28.101Z,8.57
2018-11-03T17:41:56.364Z,9.10
2018-11-03T17:44:24.860Z,9.07
2018-11-03T17:46:53.136Z,9.77
2018-11-03T17:49:21.428Z,8.87
2018-11-03T17:51:49.796Z,9.50
2018-11-03T17:54:18.198Z,8.30
2018-11-03T17:56:46.837Z,8.70
2018-11-03T17:59:16.136Z,9.27
2018-11-03T18:01:44.432Z,8.23
2018-11-03T18:04:12.788Z,9.17
2018-11-03T18:06:41.058Z,9.07
2018-11-03T18:09:09.919Z,8.53
2018-11-03T18:11:38.161Z,8.40
2018-11-03T18:14:06.470Z,9.33
2018-11-03T18:16:34.758Z,8.77
2018-11-03T18:19:03.022Z,8.97
2018-11-03T18:21:31.367Z,9.17
2018-11-03T18:23:59.628Z,9.73
2018-11-03T18:26:27.947Z,8.80
2018-11-03T18:28:56.186Z,10.43
2018-11-03T18:31:24.536Z,8.60
2018-11-03T18:33:52.857Z,9.60
2018-11-03T18:36:21.108Z,9.23
2018-11-03T18:38:49.357Z,8.83
2018-11-03T18:41:17.583Z,9.13
2018-11-03T18:43:45.903Z,8.90
2018-11-03T18:46:14.174Z,9.23
2018-11-03T18:48:42.637Z,9.30
2018-11-03T18:51:10.925Z,9.40
2018-11-03T18:53:39.152Z,8.80
2018-11-03T18:56:07.489Z,10.47
2018-11-03T18:58:35.764Z,10.10
2018-11-03T19:01:04.030Z,9.67
2018-11-03T19:03:32.397Z,10.43
2018-11-03T19:06:00.701Z,10.20
2018-11-03T19:08:28.973Z,9.03
2018-11-03T19:10:57.257Z,10.70
2018-11-03T19:13:25.613Z,9.50
2018-11-03T19:15:54.078Z,9.63
2018-11-03T19:18:22.323Z,10.00
2018-11-03T19:20:50.644Z,9.63
2018-11-03T19:23:18.957Z,9.40
2018-11-03T19:25:47.215Z,10.00
2018-11-03T19:28:15.486Z,10.23
2018-11-03T19:30:43.865Z,10.30
2018-11-03T19:33:12.132Z,9.63
2018-11-03T19:35:40.408Z,10.50
2018-11-03T19:38:08.658Z,11.20
2018-11-03T19:40:36.952Z,10.90
2018-11-03T19:43:05.384Z,10.93
2018-11-03T19:45:33.660Z,11.30
2018-11-03T19:48:01.976Z,10.60
2018-11-03T19:50:30.332Z,11.47
2018-11-03T19:52:58.651Z,11.77
2018-11-03T19:55:26.958Z,11.03
2018-11-03T19:57:55.164Z,10.37
2018-11-03T20:00:23.414Z,10.07
2018-11-03T20:02:51.713Z,11.23
2018-11-03T20:05:19.964Z,11.67
2018-11-03T20:07:48.208Z,11.77
2018-11-03T20:10:16.473Z,10.97
2018-11-03T20:12:44.976Z,10.93
2018-11-03T20:15:13.700Z,11.63
2018-11-03T20:17:42.364Z,10.87
2018-11-03T20:20:11.910Z,11.00
2018-11-03T20:22:40.161Z,12.03
2018-11-03T20:25:10.238Z,10.80
2018-11-03T20:27:38.549Z,11.20
2018-11-03T20:30:09.188Z,11.63
2018-11-03T20:32:37.443Z,10.73
2018-11-03T20:35:06.180Z,11.37
2018-11-03T20:37:34.516Z,10.13
2018-11-03T20:40:02.774Z,11.20
2018-11-03T20:42:31.060Z,10.50
2018-11-03T20:44:59.333Z,11.53
2018-11-03T20:47:27.615Z,11.03
2018-11-03T20:49:55.893Z,11.77
2018-11-03T20:52:24.169Z,11.00
2018-11-03T20:54:52.426Z,13.00
2018-11-03T20:57:20.699Z,10.60
2018-11-03T20:59:48.953Z,11.47
2018-11-03T21:02:17.248Z,11.00
2018-11-03T21:04:45.560Z,10.67
2018-11-03T21:07:13.968Z,10.57
2018-11-03T21:09:42.276Z,11.80
2018-11-03T21:12:10.772Z,11.43
2018-11-03T21:14:40.031Z,10.23
2018-11-03T21:17:08.330Z,12.17
2018-11-03T21:19:36.610Z,11.70
2018-11-03T21:22:08.773Z,11.60
2018-11-03T21:24:37.430Z,11.30
2018-11-03T21:27:06.764Z,11.37
2018-11-03T21:29:35.800Z,12.33
2018-11-03T21:32:04.148Z,11.57
2018-11-03T21:34:32.401Z,11.80
2018-11-03T21:37:01.426Z,11.97
2018-11-03T21:39:29.779Z,11.80
2018-11-03T21:41:58.040Z,11.50
2018-11-03T21:44:26.335Z,10.67
2018-11-03T21:46:54.772Z,12.40
2018-11-03T21:49:22.923Z,12.80
2018-11-03T21:51:51.689Z,10.90
2018-11-03T21:54:20.744Z,11.30
2018-11-03T21:56:49.035Z,12.10
2018-11-03T21:59:17.314Z,11.50
2018-11-03T22:01:45.576Z,11.77
2018-11-03T22:04:14.206Z,12.90
2018-11-03T22:06:42.505Z,12.97
2018-11-03T22:09:11.933Z,13.57
2018-11-03T22:11:40.217Z,12.77
2018-11-03T22:14:08.501Z,13.00
2018-11-03T22:16:36.841Z,12.37
2018-11-03T22:19:05.306Z,13.63
2018-11-03T22:21:33.574Z,14.10
2018-11-03T22:24:02.108Z,14.23
2018-11-03T22:26:30.559Z,13.40
2018-11-03T22:28:58.808Z,14.17
2018-11-03T22:31:27.066Z,14.10
2018-11-03T22:33:55.317Z,13.53
2018-11-03T22:36:23.589Z,14.60
2018-11-03T22:38:51.913Z,14.27
2018-11-03T22:41:20.228Z,14.23
2018-11-03T22:43:48.528Z,15.03
2018-11-03T22:46:16.795Z,14.20
2018-11-03T22:48:45.155Z,14.60
2018-11-03T22:51:15.298Z,15.23
2018-11-03T22:53:44.811Z,15.43
2018-11-03T22:56:13.253Z,15.80
2018-11-03T22:58:41.512Z,16.10
2018-11-03T23:01:09.776Z,15.20
2018-11-03T23:03:38.032Z,15.53
2018-11-03T23:06:06.301Z,15.10
2018-11-03T23:08:34.580Z,15.47
2018-11-03T23:11:02.840Z,14.53
2018-11-03T23:13:31.167Z,14.40
2018-11-03T23:15:59.456Z,17.17
2018-11-03T23:18:27.753Z,15.77
2018-11-03T23:20:56.047Z,17.30
2018-11-03T23:23:24.321Z,16.70
2018-11-03T23:25:52.682Z,16.20
2018-11-03T23:28:20.959Z,15.10
2018-11-03T23:30:49.209Z,15.97
2018-11-03T23:33:17.484Z,15.60
2018-11-03T23:35:45.776Z,15.90
2018-11-03T23:38:14.029Z,15.33
2018-11-03T23:40:42.272Z,14.00
2018-11-03T23:43:10.564Z,14.93
2018-11-03T23:45:38.832Z,16.20
2018-11-03T23:48:07.120Z,16.20
2018-11-03T23:50:35.376Z,15.60
2018-11-03T23:53:03.686Z,15.90
2018-11-03T23:55:31.905Z,15.90
2018-11-03T23:58:00.220Z,16.80
